createdAt,value
2023-12-20T00:00:01.747Z,101709.50
2023-12-20T00:02:28.229Z,101706.66
2023-12-20T00:04:54.793Z,101705.59
2023-12-20T00:07:21.457Z,101697.53
2023-12-20T00:09:48.229Z,101689.34
2023-12-20T00:12:14.768Z,101679.28
2023-12-20T00:14:41.304Z,101682.53
2023-12-20T00:17:07.798Z,101680.66
2023-12-20T00:19:34.393Z,101665.34
2023-12-20T00:22:01.093Z,101677.66
2023-12-20T00:24:27.589Z,101671.38
2023-12-20T00:26:54.038Z,101666.88
2023-12-20T00:29:20.461Z,101663.44
2023-12-20T00:31:47.078Z,101661.03
2023-12-20T00:34:13.777Z,101661.19
2023-12-20T00:36:40.372Z,101652.59
2023-12-20T00:39:08.077Z,101652.72
2023-12-20T00:41:34.535Z,101639.56
2023-12-20T00:44:00.983Z,101644.06
2023-12-20T00:46:27.782Z,101636.13
2023-12-20T00:48:54.355Z,101633.44
2023-12-20T00:51:20.990Z,101623.63
2023-12-20T00:53:50.633Z,101617.25
2023-12-20T00:56:17.298Z,101606.41
2023-12-20T00:58:43.854Z,101598.22
2023-12-20T01:01:10.328Z,101590.97
2023-12-20T01:03:37.541Z,101587.31
2023-12-20T01:06:05.776Z,101595.03
2023-12-20T01:08:32.414Z,101594.84
2023-12-20T01:10:58.874Z,101603.66
2023-12-20T01:13:25.425Z,101602.88
2023-12-20T01:15:52.034Z,101595.81
2023-12-20T01:18:18.565Z,101588.81
2023-12-20T01:20:45.044Z,101588.94
2023-12-20T01:23:11.521Z,101584.53
2023-12-20T01:25:37.956Z,101567.66
2023-12-20T01:28:04.653Z,101575.66
2023-12-20T01:30:33.986Z,101577.38
2023-12-20T01:33:01.741Z,101572.91
2023-12-20T01:35:28.325Z,101577.28
2023-12-20T01:37:57.848Z,101579.97
2023-12-20T01:40:24.454Z,101566.78
2023-12-20T01:43:04.033Z,101564.97
2023-12-20T01:45:30.522Z,101570.31
2023-12-20T01:47:58.231Z,101559.72
2023-12-20T01:50:24.966Z,101566.78
2023-12-20T01:52:53.217Z,101568.50
2023-12-20T01:55:20.962Z,101568.34
2023-12-20T01:57:48.630Z,101563.00
2023-12-20T02:00:15.695Z,101562.81
2023-12-20T02:02:42.161Z,101557.19
2023-12-20T02:05:08.967Z,101555.22
2023-12-20T02:07:36.285Z,101550.66
2023-12-20T02:10:03.351Z,101549.03
2023-12-20T02:12:29.846Z,101542.13
2023-12-20T02:14:56.384Z,101542.41
2023-12-20T02:17:22.937Z,101541.63
2023-12-20T02:19:49.531Z,101530.97
2023-12-20T02:22:16.282Z,101522.84
2023-12-20T02:24:42.921Z,101529.06
2023-12-20T02:27:09.565Z,101519.38
2023-12-20T02:29:36.209Z,101516.91
2023-12-20T02:32:02.676Z,101516.84
2023-12-20T02:34:29.185Z,101519.38
2023-12-20T02:36:55.849Z,101512.25
2023-12-20T02:39:23.001Z,101512.16
2023-12-20T02:41:49.490Z,101513.03
2023-12-20T02:44:15.983Z,101512.84
2023-12-20T02:46:42.520Z,101506.47
2023-12-20T02:49:09.108Z,101497.44
2023-12-20T02:51:35.732Z,101491.13
2023-12-20T02:54:02.204Z,101489.41
2023-12-20T02:56:28.619Z,101476.91
2023-12-20T02:58:55.114Z,101483.88
2023-12-20T03:01:21.656Z,101477.50
2023-12-20T03:03:48.249Z,101472.91
2023-12-20T03:06:18.045Z,101463.00
2023-12-20T03:08:44.610Z,101462.06
2023-12-20T03:11:11.168Z,101467.28
2023-12-20T03:13:37.769Z,101464.81
2023-12-20T03:16:10.769Z,101465.78
2023-12-20T03:18:37.570Z,101467.69
2023-12-20T03:21:05.165Z,101468.53
2023-12-20T03:23:33.448Z,101468.53
2023-12-20T03:26:02.946Z,101475.69
2023-12-20T03:28:29.689Z,101471.97
2023-12-20T03:30:56.415Z,101478.94
2023-12-20T03:33:23.050Z,101477.97
2023-12-20T03:35:49.535Z,101464.72
2023-12-20T03:38:16.026Z,101448.72
2023-12-20T03:40:42.592Z,101441.63
2023-12-20T03:43:09.325Z,101443.38
2023-12-20T03:45:35.923Z,101436.19
2023-12-20T03:48:02.481Z,101438.78
2023-12-20T03:50:28.969Z,101431.63
2023-12-20T03:52:55.481Z,101418.28
2023-12-20T03:55:21.990Z,101411.19
2023-12-20T03:57:48.698Z,101411.31
2023-12-20T04:00:15.377Z,101404.22
2023-12-20T04:02:42.531Z,101404.34
2023-12-20T04:05:09.463Z,101401.75
2023-12-20T04:07:36.780Z,101396.59
2023-12-20T04:10:05.037Z,101389.81
2023-12-20T04:12:34.837Z,101381.97
2023-12-20T04:15:01.378Z,101382.94
2023-12-20T04:17:28.021Z,101383.81
2023-12-20T04:19:54.619Z,101392.75
2023-12-20T04:22:21.261Z,101395.34
2023-12-20T04:24:47.798Z,101390.00
2023-12-20T04:27:14.271Z,101389.06
2023-12-20T04:29:40.738Z,101379.22
2023-12-20T04:32:07.374Z,101376.56
2023-12-20T04:34:33.919Z,101363.22
2023-12-20T04:37:00.503Z,101361.22
2023-12-20T04:39:27.114Z,101366.56
2023-12-20T04:41:53.616Z,101370.16
2023-12-20T04:44:20.057Z,101370.16
2023-12-20T04:46:46.547Z,101379.91
2023-12-20T04:49:13.093Z,101375.50
2023-12-20T04:51:39.733Z,101387.03
2023-12-20T04:54:06.351Z,101389.63
2023-12-20T04:56:32.949Z,101387.94
2023-12-20T04:58:59.511Z,101385.34
2023-12-20T05:01:26.113Z,101372.06
2023-12-20T05:03:52.712Z,101359.47
2023-12-20T05:06:19.228Z,101356.72
2023-12-20T05:08:45.720Z,101348.50
2023-12-20T05:11:14.321Z,101346.53
2023-12-20T05:13:45.357Z,101348.25
2023-12-20T05:16:18.914Z,101355.09
2023-12-20T05:18:46.338Z,101346.91
2023-12-20T05:21:12.882Z,101341.38
2023-12-20T05:23:39.410Z,101339.38
2023-12-20T05:26:05.979Z,101326.88
2023-12-20T05:28:34.446Z,101323.16
2023-12-20T05:31:01.072Z,101324.09
2023-12-20T05:33:27.683Z,101329.44
2023-12-20T05:35:54.180Z,101328.97
2023-12-20T05:38:20.780Z,101330.59
2023-12-20T05:40:47.251Z,101325.91
2023-12-20T05:43:13.900Z,101336.97
2023-12-20T05:45:41.630Z,101335.34
2023-12-20T05:48:08.270Z,101334.66
2023-12-20T05:50:36.090Z,101331.44
2023-12-20T05:53:02.551Z,101328.91
2023-12-20T05:55:28.993Z,101322.81
2023-12-20T05:57:55.529Z,101324.63
2023-12-20T06:00:21.978Z,101319.28
2023-12-20T06:02:48.486Z,101312.91
2023-12-20T06:05:15.094Z,101307.19
2023-12-20T06:07:41.613Z,101305.00
2023-12-20T06:10:08.648Z,101303.78
2023-12-20T06:12:37.333Z,101299.03
2023-12-20T06:15:04.559Z,101289.88
2023-12-20T06:17:32.491Z,101300.34
2023-12-20T06:19:59.335Z,101297.59
2023-12-20T06:22:26.023Z,101309.03
2023-12-20T06:24:52.562Z,101308.94
2023-12-20T06:27:19.121Z,101312.56
2023-12-20T06:29:46.259Z,101302.84
2023-12-20T06:32:12.758Z,101301.03
2023-12-20T06:34:39.583Z,101303.69
2023-12-20T06:37:06.498Z,101309.97
2023-12-20T06:39:36.188Z,101315.44
2023-12-20T06:42:02.822Z,101316.59
2023-12-20T06:44:29.421Z,101311.25
2023-12-20T06:46:55.923Z,101313.16
2023-12-20T06:49:22.515Z,101301.50
2023-12-20T06:51:49.054Z,101297.88
2023-12-20T06:54:15.565Z,101297.13
2023-12-20T06:56:42.321Z,101286.31
2023-12-20T06:59:08.793Z,101287.97
2023-12-20T07:01:35.472Z,101289.66
2023-12-20T07:04:01.959Z,101298.25
2023-12-20T07:06:28.572Z,101303.69
2023-12-20T07:08:58.065Z,101293.09
2023-12-20T07:11:25.457Z,101291.78
2023-12-20T07:13:51.957Z,101284.22
2023-12-20T07:16:20.923Z,101281.09
2023-12-20T07:18:48.286Z,101283.91
2023-12-20T07:21:14.755Z,101293.22
2023-12-20T07:23:41.727Z,101294.06
2023-12-20T07:26:08.463Z,101294.66
2023-12-20T07:28:35.112Z,101297.09
2023-12-20T07:31:01.752Z,101292.97
2023-12-20T07:33:28.379Z,101290.44
2023-12-20T07:35:54.964Z,101285.75
2023-12-20T07:38:21.529Z,101283.25
2023-12-20T07:40:48.011Z,101290.34
2023-12-20T07:43:14.469Z,101285.28
2023-12-20T07:45:41.511Z,101285.81
2023-12-20T07:48:08.373Z,101291.34
2023-12-20T07:50:34.974Z,101293.06
2023-12-20T07:53:02.210Z,101287.75
2023-12-20T07:55:28.809Z,101286.22
2023-12-20T07:57:55.423Z,101287.69
2023-12-20T08:00:22.026Z,101296.25
2023-12-20T08:02:48.616Z,101288.91
2023-12-20T08:05:16.668Z,101292.13
2023-12-20T08:07:44.549Z,101291.09
2023-12-20T08:10:11.268Z,101274.97
2023-12-20T08:12:38.053Z,101275.72
2023-12-20T08:15:05.365Z,101267.41
2023-12-20T08:17:31.977Z,101271.41
2023-12-20T08:19:58.637Z,101270.94
2023-12-20T08:22:25.362Z,101261.47
2023-12-20T08:24:51.906Z,101265.75
2023-12-20T08:27:18.449Z,101258.22
2023-12-20T08:29:45.709Z,101263.19
2023-12-20T08:32:12.380Z,101249.38
2023-12-20T08:34:39.142Z,101260.06
2023-12-20T08:37:05.773Z,101270.66
2023-12-20T08:39:34.668Z,101273.25
2023-12-20T08:42:01.218Z,101288.66
2023-12-20T08:44:27.712Z,101290.75
2023-12-20T08:46:54.243Z,101287.66
2023-12-20T08:49:21.232Z,101287.59
2023-12-20T08:51:47.823Z,101282.31
2023-12-20T08:54:14.488Z,101270.69
2023-12-20T08:56:41.059Z,101259.91
2023-12-20T08:59:07.588Z,101260.53
2023-12-20T09:01:34.178Z,101258.53
2023-12-20T09:04:00.825Z,101264.44
2023-12-20T09:06:27.380Z,101262.25
2023-12-20T09:08:53.918Z,101267.97
2023-12-20T09:11:20.428Z,101269.44
2023-12-20T09:13:47.204Z,101277.94
2023-12-20T09:16:15.015Z,101279.31
2023-12-20T09:18:41.503Z,101281.91
2023-12-20T09:21:07.937Z,101290.59
2023-12-20T09:23:34.580Z,101285.25
2023-12-20T09:26:01.028Z,101280.66
2023-12-20T09:28:27.553Z,101277.97
2023-12-20T09:30:54.169Z,101278.72
2023-12-20T09:33:20.704Z,101274.88
2023-12-20T09:35:47.411Z,101282.69
2023-12-20T09:38:15.724Z,101274.47
2023-12-20T09:40:42.403Z,101274.16
2023-12-20T09:43:12.244Z,101273.84
2023-12-20T09:45:39.331Z,101278.03
2023-12-20T09:48:06.082Z,101268.72
2023-12-20T09:50:33.785Z,101271.06
2023-12-20T09:53:00.876Z,101269.81
2023-12-20T09:55:27.530Z,101259.72
2023-12-20T09:57:54.207Z,101250.59
2023-12-20T10:00:20.856Z,101253.75
2023-12-20T10:03:00.120Z,101256.84
2023-12-20T10:05:30.628Z,101258.22
2023-12-20T10:07:58.090Z,101260.47
2023-12-20T10:10:31.681Z,101265.63
2023-12-20T10:13:08.236Z,101261.66
2023-12-20T10:15:34.844Z,101255.97
2023-12-20T10:18:02.829Z,101249.53
2023-12-20T10:20:32.446Z,101256.47
2023-12-20T10:22:59.426Z,101258.31
2023-12-20T10:25:26.424Z,101258.22
2023-12-20T10:28:12.828Z,101244.81
2023-12-20T10:30:40.144Z,101236.78
2023-12-20T10:33:07.992Z,101236.78
2023-12-20T10:35:35.095Z,101235.78
2023-12-20T10:38:03.146Z,101231.94
2023-12-20T10:40:33.680Z,101223.88
2023-12-20T10:43:00.698Z,101220.25
2023-12-20T10:45:27.178Z,101209.53
2023-12-20T10:47:53.725Z,101214.66
2023-12-20T10:50:20.995Z,101210.16
2023-12-20T10:52:49.849Z,101205.22
2023-12-20T10:55:16.377Z,101201.19
2023-12-20T10:57:43.070Z,101212.34
2023-12-20T11:00:10.304Z,101218.91
2023-12-20T11:02:38.305Z,101210.97
2023-12-20T11:05:13.939Z,101193.28
2023-12-20T11:07:44.749Z,101188.78
2023-12-20T11:10:17.613Z,101193.28
2023-12-20T11:12:46.931Z,101192.84
2023-12-20T11:15:13.601Z,101180.72
2023-12-20T11:17:40.442Z,101179.31
2023-12-20T11:20:12.066Z,101172.53
2023-12-20T11:22:41.771Z,101169.41
2023-12-20T11:25:12.459Z,101163.53
2023-12-20T11:27:43.938Z,101153.47
2023-12-20T11:30:11.021Z,101155.25
2023-12-20T11:32:37.946Z,101157.38
2023-12-20T11:35:07.355Z,101154.00
2023-12-20T11:37:36.595Z,101141.00
2023-12-20T11:40:12.829Z,101138.94
2023-12-20T11:42:40.571Z,101142.38
2023-12-20T11:45:09.716Z,101137.13
2023-12-20T11:47:36.377Z,101134.19
2023-12-20T11:50:05.161Z,101129.81
2023-12-20T11:52:31.846Z,101128.59
2023-12-20T11:54:58.673Z,101129.09
2023-12-20T11:57:26.408Z,101137.38
2023-12-20T11:59:53.960Z,101129.44
2023-12-20T12:02:20.831Z,101133.09
2023-12-20T12:04:48.178Z,101124.94
2023-12-20T12:07:15.201Z,101117.97
2023-12-20T12:09:41.658Z,101117.72
2023-12-20T12:12:10.808Z,101107.34
2023-12-20T12:14:38.816Z,101102.47
2023-12-20T12:17:05.982Z,101114.06
2023-12-20T12:19:37.082Z,101102.97
2023-12-20T12:22:17.864Z,101097.13
2023-12-20T12:24:45.373Z,101101.97
2023-12-20T12:27:12.689Z,101098.06
2023-12-20T12:29:39.351Z,101096.81
2023-12-20T12:32:09.681Z,101092.06
2023-12-20T12:34:37.191Z,101097.34
2023-12-20T12:37:05.073Z,101102.47
2023-12-20T12:39:31.690Z,101100.50
2023-12-20T12:41:58.533Z,101087.97
2023-12-20T12:44:27.378Z,101087.22
2023-12-20T12:46:55.086Z,101063.38
2023-12-20T12:49:22.992Z,101059.94
2023-12-20T12:51:49.742Z,101052.16
2023-12-20T12:54:17.806Z,101056.06
2023-12-20T12:56:44.408Z,101047.56
2023-12-20T12:59:10.911Z,101037.88
2023-12-20T13:01:37.494Z,101038.88
2023-12-20T13:04:07.618Z,101032.88
2023-12-20T13:06:34.210Z,101023.25
2023-12-20T13:09:00.654Z,101028.84
2023-12-20T13:11:27.149Z,101041.94
2023-12-20T13:13:53.617Z,101036.31
2023-12-20T13:16:20.075Z,101035.97
2023-12-20T13:18:46.670Z,101039.88
2023-12-20T13:21:13.224Z,101037.19
2023-12-20T13:23:41.231Z,101042.53
2023-12-20T13:26:08.677Z,101042.53
2023-12-20T13:28:35.263Z,101044.13
2023-12-20T13:31:01.884Z,101042.91
2023-12-20T13:33:28.585Z,101041.09
2023-12-20T13:35:55.154Z,101045.84
2023-12-20T13:38:22.238Z,101041.31
2023-12-20T13:40:48.766Z,101035.34
2023-12-20T13:43:15.411Z,101022.06
2023-12-20T13:45:42.753Z,101024.97
2023-12-20T13:48:09.258Z,101012.66
2023-12-20T13:50:35.823Z,101023.66
2023-12-20T13:53:02.714Z,101022.19
2023-12-20T13:55:29.343Z,101019.72
2023-12-20T13:57:56.426Z,101015.34
2023-12-20T14:00:23.597Z,101011.94
2023-12-20T14:02:51.108Z,101021.78
2023-12-20T14:05:19.436Z,101029.72
2023-12-20T14:07:46.969Z,101029.72
2023-12-20T14:10:17.111Z,101035.09
2023-12-20T14:12:45.128Z,101038.03
2023-12-20T14:15:14.216Z,101023.75
2023-12-20T14:17:41.297Z,101038.03
2023-12-20T14:20:08.491Z,101031.69
2023-12-20T14:22:35.282Z,101028.88
2023-12-20T14:25:01.918Z,101028.25
2023-12-20T14:27:28.977Z,101024.84
2023-12-20T14:29:55.790Z,101035.84
2023-12-20T14:32:22.428Z,101029.00
2023-12-20T14:34:49.131Z,101026.53
2023-12-20T14:37:15.929Z,101025.22
2023-12-20T14:39:42.774Z,101029.44
2023-12-20T14:42:15.093Z,101028.72
2023-12-20T14:44:42.160Z,101026.78
2023-12-20T14:47:08.766Z,101018.09
2023-12-20T14:49:35.348Z,101017.16
2023-12-20T14:52:01.945Z,101016.16
2023-12-20T14:54:28.444Z,101021.81
2023-12-20T14:56:54.910Z,101022.16
2023-12-20T14:59:22.192Z,101027.63
2023-12-20T15:01:48.717Z,101022.41
2023-12-20T15:04:15.236Z,101030.44
2023-12-20T15:06:41.781Z,101026.19
2023-12-20T15:09:09.585Z,101028.63
2023-12-20T15:11:36.797Z,101015.72
2023-12-20T15:14:03.908Z,101020.66
2023-12-20T15:16:30.579Z,101026.78
2023-12-20T15:18:57.953Z,101022.56
2023-12-20T15:21:32.743Z,101016.16
2023-12-20T15:24:06.742Z,101012.75
2023-12-20T15:26:33.918Z,101006.72
2023-12-20T15:29:02.039Z,101008.69
2023-12-20T15:31:28.830Z,101012.72
2023-12-20T15:33:56.151Z,101014.19
2023-12-20T15:36:22.916Z,101017.59
2023-12-20T15:38:49.401Z,101019.22
2023-12-20T15:41:22.532Z,101018.97
2023-12-20T15:43:49.170Z,101014.34
2023-12-20T15:46:16.049Z,101023.13
2023-12-20T15:48:42.850Z,101015.91
2023-12-20T15:51:10.033Z,101012.38
2023-12-20T15:53:36.596Z,101000.81
2023-12-20T15:56:03.326Z,101001.03
2023-12-20T15:58:31.815Z,101001.28
2023-12-20T16:00:58.519Z,100996.88
2023-12-20T16:03:26.008Z,101003.97
2023-12-20T16:05:55.861Z,101011.03
2023-12-20T16:08:22.380Z,101015.44
2023-12-20T16:10:48.923Z,101030.06
2023-12-20T16:13:15.490Z,101032.97
2023-12-20T16:15:42.465Z,101047.56
2023-12-20T16:18:12.251Z,101049.50
2023-12-20T16:20:39.299Z,101047.22
2023-12-20T16:23:05.914Z,101055.63
2023-12-20T16:25:32.708Z,101055.94
2023-12-20T16:27:59.337Z,101054.03
2023-12-20T16:30:25.887Z,101050.63
2023-12-20T16:32:53.446Z,101052.56
2023-12-20T16:35:20.049Z,101055.44
2023-12-20T16:37:46.847Z,101064.47
2023-12-20T16:40:13.774Z,101053.84
2023-12-20T16:42:40.282Z,101047.75
2023-12-20T16:45:07.818Z,101055.03
2023-12-20T16:47:34.551Z,101055.50
2023-12-20T16:50:03.441Z,101067.38
2023-12-20T16:52:30.156Z,101076.09
2023-12-20T16:54:56.754Z,101069.03
2023-12-20T16:57:23.234Z,101086.09
2023-12-20T16:59:49.663Z,101079.00
2023-12-20T17:02:16.252Z,101080.00
2023-12-20T17:04:42.854Z,101075.13
2023-12-20T17:07:09.420Z,101077.53
2023-12-20T17:09:35.880Z,101086.25
2023-12-20T17:12:02.394Z,101090.03
2023-12-20T17:14:28.830Z,101100.53
2023-12-20T17:16:55.315Z,101092.25
2023-12-20T17:19:24.855Z,101096.69
2023-12-20T17:21:54.619Z,101100.06
2023-12-20T17:24:21.060Z,101103.44
2023-12-20T17:26:47.525Z,101099.56
2023-12-20T17:29:14.019Z,101102.97
2023-12-20T17:31:42.697Z,101102.19
2023-12-20T17:34:12.475Z,101106.00
2023-12-20T17:36:39.609Z,101109.97
2023-12-20T17:39:06.023Z,101109.03
2023-12-20T17:41:33.962Z,101108.06
2023-12-20T17:44:00.426Z,101113.31
2023-12-20T17:46:26.907Z,101113.22
2023-12-20T17:48:53.646Z,101107.00
2023-12-20T17:51:20.139Z,101114.06
2023-12-20T17:53:46.776Z,101117.59
2023-12-20T17:56:13.832Z,101112.25
2023-12-20T17:58:40.346Z,101117.28
2023-12-20T18:01:07.093Z,101113.00
2023-12-20T18:03:34.319Z,101123.69
2023-12-20T18:06:00.911Z,101120.25
2023-12-20T18:08:27.409Z,101125.81
2023-12-20T18:10:54.096Z,101131.34
2023-12-20T18:13:20.606Z,101135.16
2023-12-20T18:15:47.145Z,101129.06
2023-12-20T18:18:13.701Z,101135.38
2023-12-20T18:20:40.845Z,101133.63
2023-12-20T18:23:07.588Z,101131.06
2023-12-20T18:25:36.101Z,101136.59
2023-12-20T18:28:04.590Z,101135.84
2023-12-20T18:30:31.132Z,101133.19
2023-12-20T18:32:59.109Z,101138.50
2023-12-20T18:35:25.531Z,101135.94
2023-12-20T18:37:52.378Z,101132.31
2023-12-20T18:40:19.110Z,101136.78
2023-12-20T18:42:46.846Z,101136.16
2023-12-20T18:45:13.455Z,101141.66
2023-12-20T18:47:40.462Z,101141.03
2023-12-20T18:50:10.309Z,101153.69
2023-12-20T18:52:37.394Z,101146.06
2023-12-20T18:55:04.076Z,101141.34
2023-12-20T18:57:30.914Z,101146.47
2023-12-20T19:00:00.225Z,101142.63
2023-12-20T19:02:32.986Z,101152.00
2023-12-20T19:04:59.971Z,101159.41
2023-12-20T19:07:26.810Z,101157.69
2023-12-20T19:09:53.515Z,101164.94
2023-12-20T19:12:20.406Z,101168.56
2023-12-20T19:14:47.219Z,101163.31
2023-12-20T19:17:13.718Z,101162.56
2023-12-20T19:19:40.789Z,101157.00
2023-12-20T19:22:07.411Z,101157.00
2023-12-20T19:24:33.889Z,101158.75
2023-12-20T19:27:00.536Z,101158.75
2023-12-20T19:29:27.016Z,101155.97
2023-12-20T19:31:54.227Z,101159.22
2023-12-20T19:34:21.082Z,101164.28
2023-12-20T19:36:47.569Z,101170.47
2023-12-20T19:39:14.231Z,101169.28
2023-12-20T19:41:40.683Z,101175.19
2023-12-20T19:44:07.843Z,101168.34
2023-12-20T19:46:34.488Z,101175.56
2023-12-20T19:49:04.961Z,101178.91
2023-12-20T19:51:31.641Z,101175.88
2023-12-20T19:53:58.435Z,101181.78
2023-12-20T19:56:25.158Z,101172.09
2023-12-20T19:58:51.754Z,101170.25
2023-12-20T20:01:25.794Z,101168.56
2023-12-20T20:03:52.400Z,101172.16
2023-12-20T20:06:18.917Z,101172.16
2023-12-20T20:08:45.511Z,101176.81
2023-12-20T20:11:21.500Z,101168.94
2023-12-20T20:13:57.310Z,101179.69
2023-12-20T20:16:24.129Z,101184.34
2023-12-20T20:18:50.842Z,101184.69
2023-12-20T20:21:17.472Z,101191.00
2023-12-20T20:23:43.981Z,101182.13
2023-12-20T20:26:10.520Z,101184.28
2023-12-20T20:28:37.383Z,101180.53
2023-12-20T20:31:04.757Z,101179.16
2023-12-20T20:33:34.586Z,101182.72
2023-12-20T20:36:01.201Z,101177.09
2023-12-20T20:38:27.698Z,101180.41
2023-12-20T20:40:58.428Z,101180.63
2023-12-20T20:43:25.338Z,101174.03
2023-12-20T20:45:51.897Z,101183.41
2023-12-20T20:48:27.245Z,101195.28
2023-12-20T20:50:59.851Z,101196.59
2023-12-20T20:53:26.681Z,101188.84
2023-12-20T20:55:53.221Z,101188.94
2023-12-20T20:58:19.805Z,101197.94
2023-12-20T21:00:46.580Z,101183.00
2023-12-20T21:03:13.182Z,101185.75
2023-12-20T21:05:40.802Z,101185.75
2023-12-20T21:08:07.835Z,101198.28
2023-12-20T21:10:34.678Z,101210.00
2023-12-20T21:13:01.263Z,101206.56
2023-12-20T21:15:27.862Z,101220.91
2023-12-20T21:17:54.529Z,101222.78
2023-12-20T21:20:21.478Z,101214.88
2023-12-20T21:22:48.076Z,101207.94
2023-12-20T21:25:15.047Z,101207.84
2023-12-20T21:27:41.817Z,101204.22
2023-12-20T21:30:08.613Z,101210.44
2023-12-20T21:32:36.339Z,101206.81
2023-12-20T21:35:02.946Z,101210.34
2023-12-20T21:37:29.559Z,101215.56
2023-12-20T21:39:56.285Z,101220.63
2023-12-20T21:42:22.895Z,101216.94
2023-12-20T21:44:49.628Z,101206.13
2023-12-20T21:47:16.141Z,101206.72
2023-12-20T21:49:42.804Z,101194.84
2023-12-20T21:52:09.342Z,101182.22
2023-12-20T21:54:39.636Z,101182.88
2023-12-20T21:57:06.238Z,101176.63
2023-12-20T21:59:33.003Z,101181.00
2023-12-20T22:01:59.705Z,101195.19
2023-12-20T22:04:29.773Z,101191.41
2023-12-20T22:06:56.378Z,101207.28
2023-12-20T22:09:22.963Z,101194.56
2023-12-20T22:11:49.448Z,101192.59
2023-12-20T22:14:15.847Z,101204.75
2023-12-20T22:16:42.771Z,101192.22
2023-12-20T22:19:09.440Z,101198.16
2023-12-20T22:21:37.450Z,101191.53
2023-12-20T22:24:04.092Z,101205.25
2023-12-20T22:26:30.864Z,101204.41
2023-12-20T22:28:57.886Z,101200.13
2023-12-20T22:31:25.038Z,101206.50
2023-12-20T22:33:51.886Z,101193.81
2023-12-20T22:36:19.599Z,101196.31
2023-12-20T22:38:46.227Z,101195.84
2023-12-20T22:41:13.920Z,101204.19
2023-12-20T22:43:41.107Z,101186.75
2023-12-20T22:46:07.738Z,101185.44
2023-12-20T22:48:35.190Z,101201.94
2023-12-20T22:51:01.928Z,101188.31
2023-12-20T22:53:28.401Z,101188.97
2023-12-20T22:55:54.851Z,101189.53
2023-12-20T22:58:21.330Z,101177.56
2023-12-20T23:00:48.454Z,101187.72
2023-12-20T23:03:15.303Z,101175.06
2023-12-20T23:05:41.794Z,101178.41
2023-12-20T23:08:08.985Z,101168.38
2023-12-20T23:10:35.754Z,101168.94
2023-12-20T23:13:02.527Z,101159.56
2023-12-20T23:15:29.013Z,101157.66
2023-12-20T23:17:57.489Z,101147.97
2023-12-20T23:20:24.505Z,101142.50
2023-12-20T23:22:51.142Z,101140.31
2023-12-20T23:25:17.941Z,101153.28
2023-12-20T23:27:48.151Z,101145.59
2023-12-20T23:30:15.038Z,101149.59
2023-12-20T23:32:41.731Z,101144.78
2023-12-20T23:35:13.780Z,101140.34
2023-12-20T23:37:45.688Z,101148.34
2023-12-20T23:40:12.647Z,101141.06
2023-12-20T23:42:39.197Z,101135.72
2023-12-20T23:45:05.971Z,101140.03
2023-12-20T23:47:32.439Z,101134.28
2023-12-20T23:49:59.195Z,101133.66
2023-12-20T23:52:25.921Z,101137.00
2023-12-20T23:54:52.490Z,101128.13
2023-12-20T23:57:19.246Z,101139.00
2023-12-20T23:59:45.861Z,101133.88
